Coldwater, Kentucky
Current Conditions -  °F | °C
As of 3:15 AM on Monday 22 Dec 2014 (Local Time) from KCEY Reporting Station
Overcast Overcast  
Wind Chill: 37°   Ceiling: 1200
Heat Index: 41°   Visibility: 10mi
Dew Point: 39°   Wind: 6mph
Humidity: 93%   Direction: 150°SSE
Pressure: 29.91"   Gusts: NA
Location:  36.618°N, 88.2562°W
Report Text: KCEY 220915Z AUTO 15005KT 10SM BKN012 OVC018 05/04 A2991 RMK AO1
Loading
Personal Weather Stations






























Interactive Weather Map New forecast layout! Learn more

10-Day Weather Forecast

Advertisements
Track Severe Weather on mobile